Time,TemperatureF,DewpointF,PressureIn,WindDirection,WindDirectionDegrees,WindSpeedMPH,WindSpeedGustMPH,Humidity,HourlyPrecipIn,Conditions,Clouds,dailyrainin,SoftwareType,DateUTC
2013-01-14 00:07:00,52.4,52.0,30.02,SW,236,1.0,5.0,98,0.00,,,0.02,weatherlink.com 1.10,2013-01-14 05:07:00,
2013-01-14 00:22:00,52.6,52.0,30.02,West,264,3.0,6.0,98,0.00,,,0.02,weatherlink.com 1.10,2013-01-14 05:22:00,
2013-01-14 00:37:00,52.8,52.0,30.01,West,267,3.0,7.0,98,0.00,,,0.00,weatherlink.com 1.10,2013-01-14 05:37:00,
2013-01-14 00:53:00,52.8,52.0,30.00,WSW,250,2.0,6.0,98,0.00,,,0.00,weatherlink.com 1.10,2013-01-14 05:53:00,
2013-01-14 01:08:00,52.8,52.0,30.00,East,91,2.0,9.0,98,0.00,,,0.00,weatherlink.com 1.10,2013-01-14 06:08:00,
2013-01-14 01:23:00,52.9,52.0,29.99,SW,221,0.0,7.0,98,0.00,,,0.00,weatherlink.com 1.10,2013-01-14 06:23:00,
2013-01-14 01:53:00,52.7,52.0,30.00,West,276,4.0,9.0,98,0.00,,,0.00,weatherlink.com 1.10,2013-01-14 06:53:00,
2013-01-14 02:08:00,52.8,52.0,30.00,SW,220,0.0,8.0,98,0.00,,,0.00,weatherlink.com 1.10,2013-01-14 07:08:00,
2013-01-14 02:23:00,53.1,53.0,30.00,WSW,247,2.0,8.0,98,0.00,,,0.00,weatherlink.com 1.10,2013-01-14 07:23:00,
2013-01-14 02:38:00,53.0,53.0,30.00,West,279,0.0,7.0,98,0.00,,,0.00,weatherlink.com 1.10,2013-01-14 07:38:00,
2013-01-14 02:53:00,52.6,52.0,30.00,SW,215,2.0,7.0,98,0.00,,,0.00,weatherlink.com 1.10,2013-01-14 07:53:00,
2013-01-14 03:08:00,52.1,52.0,30.00,WSW,240,4.0,7.0,98,0.00,,,0.00,weatherlink.com 1.10,2013-01-14 08:08:00,
2013-01-14 03:23:00,51.8,51.0,29.99,WSW,241,1.0,6.0,98,0.00,,,0.00,weatherlink.com 1.10,2013-01-14 08:23:00,
2013-01-14 03:38:00,51.7,51.0,29.98,SW,220,0.0,5.0,98,0.00,,,0.00,weatherlink.com 1.10,2013-01-14 08:38:00,
2013-01-14 03:53:00,51.6,51.0,29.98,SW,236,0.0,8.0,98,0.00,,,0.00,weatherlink.com 1.10,2013-01-14 08:53:00,
2013-01-14 04:08:00,51.8,51.0,29.97,NW,317,0.0,7.0,98,0.00,,,0.00,weatherlink.com 1.10,2013-01-14 09:08:00,
2013-01-14 04:23:00,52.1,52.0,29.97,WSW,258,2.0,6.0,98,0.00,,,0.00,weatherlink.com 1.10,2013-01-14 09:23:00,
2013-01-14 04:38:00,51.9,51.0,29.96,WSW,246,0.0,5.0,98,0.00,,,0.00,weatherlink.com 1.10,2013-01-14 09:38:00,
2013-01-14 04:53:00,51.7,51.0,29.96,SW,215,0.0,7.0,98,0.00,,,0.00,weatherlink.com 1.10,2013-01-14 09:53:00,
2013-01-14 05:08:00,51.5,51.0,29.97,SW,234,0.0,5.0,98,0.00,,,0.00,weatherlink.com 1.10,2013-01-14 10:08:00,
2013-01-14 05:23:00,51.5,51.0,29.98,West,273,2.0,4.0,98,0.00,,,0.00,weatherlink.com 1.10,2013-01-14 10:23:00,
2013-01-14 05:38:00,51.5,51.0,29.98,SW,226,0.0,3.0,98,0.00,,,0.00,weatherlink.com 1.10,2013-01-14 10:38:00,
2013-01-14 05:53:00,51.7,51.0,29.98,West,280,0.0,3.0,98,0.00,,,0.00,weatherlink.com 1.10,2013-01-14 10:53:00,
2013-01-14 06:08:00,51.9,51.0,29.98,WNW,286,0.0,4.0,98,0.00,,,0.00,weatherlink.com 1.10,2013-01-14 11:08:00,
2013-01-14 06:23:00,52.0,52.0,29.97,South,189,3.0,6.0,98,0.00,,,0.00,weatherlink.com 1.10,2013-01-14 11:23:00,
2013-01-14 06:38:00,52.0,52.0,29.97,SW,225,2.0,3.0,98,0.00,,,0.00,weatherlink.com 1.10,2013-01-14 11:38:00,
2013-01-14 06:53:00,51.7,51.0,29.97,SSW,209,4.0,6.0,98,0.00,,,0.00,weatherlink.com 1.10,2013-01-14 11:53:00,
2013-01-14 07:08:00,51.3,51.0,29.97,South,186,5.0,5.0,98,0.00,,,0.00,weatherlink.com 1.10,2013-01-14 12:08:00,
2013-01-14 07:23:00,50.9,50.0,29.97,SSW,200,1.0,6.0,98,0.00,,,0.00,weatherlink.com 1.10,2013-01-14 12:23:00,
2013-01-14 07:38:00,50.5,50.0,29.95,SSW,213,2.0,11.0,98,0.00,,,0.00,weatherlink.com 1.10,2013-01-14 12:38:00,
2013-01-14 07:53:00,50.3,50.0,29.95,SW,219,2.0,9.0,98,0.00,,,0.00,weatherlink.com 1.10,2013-01-14 12:53:00,
2013-01-14 08:08:00,51.0,51.0,29.95,SSW,210,1.0,6.0,98,0.00,,,0.00,weatherlink.com 1.10,2013-01-14 13:08:00,
2013-01-14 08:23:00,50.9,50.0,29.95,West,279,3.0,9.0,98,0.00,,,0.00,weatherlink.com 1.10,2013-01-14 13:23:00,
2013-01-14 08:38:00,51.0,51.0,29.93,SSW,199,11.0,12.0,98,0.00,,,0.00,weatherlink.com 1.10,2013-01-14 13:38:00,
2013-01-14 08:53:00,51.4,51.0,29.95,SW,224,1.0,8.0,98,0.00,,,0.00,weatherlink.com 1.10,2013-01-14 13:53:00,
2013-01-14 09:08:00,51.5,51.0,29.97,WSW,257,7.0,10.0,98,0.00,,,0.00,weatherlink.com 1.10,2013-01-14 14:08:00,
2013-01-14 09:23:00,51.4,51.0,29.99,WNW,297,1.0,9.0,98,0.00,,,0.00,weatherlink.com 1.10,2013-01-14 14:23:00,
2013-01-14 09:38:00,51.8,51.0,30.00,West,264,3.0,10.0,98,0.00,,,0.00,weatherlink.com 1.10,2013-01-14 14:38:00,
2013-01-14 09:53:00,52.0,52.0,29.98,WSW,253,1.0,6.0,98,0.00,,,0.00,weatherlink.com 1.10,2013-01-14 14:53:00,
2013-01-14 10:08:00,52.2,52.0,29.98,WSW,257,0.0,5.0,98,0.00,,,0.00,weatherlink.com 1.10,2013-01-14 15:08:00,
2013-01-14 10:23:00,52.1,52.0,29.98,SW,225,0.0,4.0,98,0.00,,,0.00,weatherlink.com 1.10,2013-01-14 15:23:00,
2013-01-14 10:38:00,52.2,52.0,30.01,WSW,256,1.0,4.0,98,0.00,,,0.00,weatherlink.com 1.10,2013-01-14 15:38:00,
2013-01-14 10:53:00,52.3,52.0,29.99,WSW,257,0.0,4.0,98,0.00,,,0.00,weatherlink.com 1.10,2013-01-14 15:53:00,
2013-01-14 11:08:00,52.6,52.0,29.99,WSW,244,0.0,3.0,98,0.00,,,0.00,weatherlink.com 1.10,2013-01-14 16:08:00,
2013-01-14 11:23:00,52.9,52.0,29.99,NNW,338,0.0,2.0,98,0.00,,,0.00,weatherlink.com 1.10,2013-01-14 16:23:00,
2013-01-14 11:38:00,53.5,53.0,29.99,WNW,292,0.0,2.0,98,0.00,,,0.00,weatherlink.com 1.10,2013-01-14 16:38:00,
2013-01-14 11:53:00,54.2,54.0,29.98,NNW,334,0.0,3.0,98,0.00,,,0.00,weatherlink.com 1.10,2013-01-14 16:53:00,
2013-01-14 12:08:00,54.9,54.0,29.99,NW,326,0.0,8.0,98,0.00,,,0.00,weatherlink.com 1.10,2013-01-14 17:08:00,
2013-01-14 12:23:00,55.4,55.0,29.99,NW,314,0.0,4.0,98,0.00,,,0.00,weatherlink.com 1.10,2013-01-14 17:23:00,
2013-01-14 12:38:00,55.5,55.0,29.98,NW,324,0.0,6.0,97,0.00,,,0.00,weatherlink.com 1.10,2013-01-14 17:38:00,
2013-01-14 12:54:00,57.1,56.0,29.98,NW,309,0.0,2.0,97,0.00,,,0.00,weatherlink.com 1.10,2013-01-14 17:54:00,
2013-01-14 13:09:00,58.4,56.0,29.98,NW,306,2.0,2.0,92,0.00,,,0.00,weatherlink.com 1.10,2013-01-14 18:09:00,
2013-01-14 13:24:00,59.9,56.0,29.99,NNW,335,0.0,2.0,88,0.00,,,0.00,weatherlink.com 1.10,2013-01-14 18:24:00,
2013-01-14 13:39:00,60.9,56.0,29.98,NW,315,0.0,3.0,84,0.00,,,0.00,weatherlink.com 1.10,2013-01-14 18:39:00,
2013-01-14 13:54:00,60.9,55.0,30.00,WSW,252,3.0,6.0,81,0.00,,,0.00,weatherlink.com 1.10,2013-01-14 18:54:00,
2013-01-14 14:09:00,59.9,54.0,30.00,West,264,1.0,6.0,80,0.00,,,0.00,weatherlink.com 1.10,2013-01-14 19:09:00,
2013-01-14 14:24:00,59.1,53.0,30.00,West,260,1.0,6.0,81,0.00,,,0.00,weatherlink.com 1.10,2013-01-14 19:24:00,
2013-01-14 14:39:00,58.6,53.0,30.02,West,260,0.0,3.0,81,0.00,,,0.00,weatherlink.com 1.10,2013-01-14 19:39:00,
2013-01-14 14:54:00,58.6,52.0,30.03,NW,318,0.0,4.0,80,0.00,,,0.00,weatherlink.com 1.10,2013-01-14 19:54:00,
2013-01-14 15:09:00,58.7,53.0,30.03,NW,321,0.0,6.0,80,0.00,,,0.00,weatherlink.com 1.10,2013-01-14 20:09:00,
2013-01-14 15:24:00,58.9,53.0,30.04,NNW,328,0.0,1.0,80,0.00,,,0.00,weatherlink.com 1.10,2013-01-14 20:24:00,
2013-01-14 15:39:00,58.9,52.0,30.05,WSW,255,0.0,1.0,78,0.00,,,0.00,weatherlink.com 1.10,2013-01-14 20:39:00,
2013-01-14 15:54:00,58.7,50.0,30.05,NW,325,3.0,7.0,74,0.00,,,0.00,weatherlink.com 1.10,2013-01-14 20:54:00,
2013-01-14 16:09:00,58.2,48.0,30.07,WNW,302,2.0,3.0,68,0.00,,,0.00,weatherlink.com 1.10,2013-01-14 21:09:00,
2013-01-14 16:24:00,57.1,43.0,30.06,NW,326,5.0,6.0,59,0.00,,,0.00,weatherlink.com 1.10,2013-01-14 21:24:00,
2013-01-14 16:39:00,56.1,40.0,30.07,NW,323,0.0,6.0,55,0.00,,,0.00,weatherlink.com 1.10,2013-01-14 21:39:00,
2013-01-14 16:54:00,55.3,40.0,30.07,NNW,331,0.0,2.0,56,0.00,,,0.00,weatherlink.com 1.10,2013-01-14 21:54:00,
2013-01-14 17:09:00,54.4,39.0,30.09,West,270,0.0,4.0,56,0.00,,,0.00,weatherlink.com 1.10,2013-01-14 22:09:00,
2013-01-14 17:24:00,53.8,39.0,30.10,NW,305,0.0,5.0,57,0.00,,,0.00,weatherlink.com 1.10,2013-01-14 22:24:00,
2013-01-14 17:39:00,53.2,38.0,30.08,NW,321,0.0,6.0,57,0.00,,,0.00,weatherlink.com 1.10,2013-01-14 22:39:00,
2013-01-14 17:54:00,52.9,38.0,30.09,WNW,286,1.0,2.0,57,0.00,,,0.00,weatherlink.com 1.10,2013-01-14 22:54:00,
2013-01-14 18:09:00,52.8,37.0,30.09,NNW,346,0.0,4.0,56,0.00,,,0.00,weatherlink.com 1.10,2013-01-14 23:09:00,
2013-01-14 18:24:00,52.4,36.0,30.10,NW,323,0.0,5.0,53,0.00,,,0.00,weatherlink.com 1.10,2013-01-14 23:24:00,
2013-01-14 18:39:00,52.1,36.0,30.10,NW,321,1.0,9.0,54,0.00,,,0.00,weatherlink.com 1.10,2013-01-14 23:39:00,
2013-01-14 18:54:00,51.5,34.0,30.10,NNW,333,0.0,5.0,52,0.00,,,0.00,weatherlink.com 1.10,2013-01-14 23:54:00,
2013-01-14 19:09:00,50.7,34.0,30.10,NNW,328,0.0,2.0,54,0.00,,,0.00,weatherlink.com 1.10,2013-01-15 00:09:00,
2013-01-14 19:24:00,50.3,34.0,30.11,NW,319,2.0,5.0,53,0.00,,,0.00,weatherlink.com 1.10,2013-01-15 00:24:00,
2013-01-14 19:39:00,50.0,34.0,30.11,NNW,333,0.0,6.0,54,0.00,,,0.00,weatherlink.com 1.10,2013-01-15 00:39:00,
2013-01-14 19:54:00,49.8,34.0,30.13,NW,319,0.0,5.0,55,0.00,,,0.00,weatherlink.com 1.10,2013-01-15 00:54:00,
2013-01-14 20:09:00,49.6,34.0,30.14,NNW,331,0.0,5.0,55,0.00,,,0.00,weatherlink.com 1.10,2013-01-15 01:09:00,
2013-01-14 20:24:00,49.3,34.0,30.14,NNW,338,5.0,9.0,56,0.00,,,0.00,weatherlink.com 1.10,2013-01-15 01:24:00,
2013-01-14 20:39:00,48.9,34.0,30.14,WNW,296,2.0,8.0,57,0.00,,,0.00,weatherlink.com 1.10,2013-01-15 01:39:00,
2013-01-14 20:54:00,48.6,34.0,30.16,NW,310,1.0,5.0,58,0.00,,,0.00,weatherlink.com 1.10,2013-01-15 01:54:00,
2013-01-14 21:09:00,48.4,34.0,30.16,NNW,348,0.0,7.0,58,0.00,,,0.00,weatherlink.com 1.10,2013-01-15 02:09:00,
2013-01-14 21:25:00,48.1,34.0,30.15,NNW,336,0.0,6.0,59,0.00,,,0.00,weatherlink.com 1.10,2013-01-15 02:25:00,
2013-01-14 21:40:00,47.8,34.0,30.15,NW,324,0.0,6.0,60,0.00,,,0.00,weatherlink.com 1.10,2013-01-15 02:40:00,
2013-01-14 21:55:00,47.5,34.0,30.15,North,355,1.0,6.0,60,0.00,,,0.00,weatherlink.com 1.10,2013-01-15 02:55:00,
2013-01-14 22:25:00,46.9,34.0,30.15,North,350,1.0,5.0,62,0.00,,,0.00,weatherlink.com 1.10,2013-01-15 03:25:00,
2013-01-14 22:40:00,46.6,33.0,30.19,NW,325,0.0,6.0,60,0.00,,,0.00,weatherlink.com 1.10,2013-01-15 03:40:00,
2013-01-14 22:55:00,46.3,34.0,30.20,NNW,344,3.0,9.0,63,0.00,,,0.00,weatherlink.com 1.10,2013-01-15 03:55:00,
2013-01-14 23:10:00,45.0,36.0,30.19,North,351,3.0,5.0,70,0.01,,,0.01,weatherlink.com 1.10,2013-01-15 04:10:00,
2013-01-14 23:25:00,43.3,37.0,30.22,NNW,334,0.0,5.0,77,0.03,,,0.03,weatherlink.com 1.10,2013-01-15 04:25:00,
2013-01-14 23:40:00,42.2,38.0,30.23,NW,309,0.0,4.0,84,0.04,,,0.04,weatherlink.com 1.10,2013-01-15 04:40:00,
2013-01-14 23:55:00,41.5,37.0,30.22,NNW,342,3.0,6.0,85,0.05,,,0.05,weatherlink.com 1.10,2013-01-15 04:55:00,